createdAt,value
2018-10-17T00:00:17.924Z,11.30
2018-10-17T00:02:46.509Z,11.30
2018-10-17T00:05:15.314Z,11.20
2018-10-17T00:07:43.779Z,11.20
2018-10-17T00:10:12.238Z,11.10
2018-10-17T00:12:41.296Z,11.10
2018-10-17T00:15:10.159Z,11.10
2018-10-17T00:17:38.677Z,11.00
2018-10-17T00:20:08.953Z,11.00
2018-10-17T00:22:37.357Z,10.90
2018-10-17T00:25:06.336Z,10.80
2018-10-17T00:27:34.697Z,10.70
2018-10-17T00:30:03.280Z,10.60
2018-10-17T00:32:31.658Z,10.60
2018-10-17T00:35:00.123Z,10.60
2018-10-17T00:37:28.765Z,10.60
2018-10-17T00:39:57.159Z,10.70
2018-10-17T00:42:25.635Z,10.80
2018-10-17T00:44:54.147Z,10.80
2018-10-17T00:47:22.634Z,10.80
2018-10-17T00:49:51.018Z,10.80
2018-10-17T00:52:19.403Z,10.80
2018-10-17T00:54:47.870Z,10.70
2018-10-17T00:57:16.252Z,10.60
2018-10-17T00:59:44.780Z,10.70
2018-10-17T01:02:13.174Z,10.60
2018-10-17T01:04:41.725Z,10.70
2018-10-17T01:07:10.303Z,10.60
2018-10-17T01:09:38.657Z,10.60
2018-10-17T01:12:07.192Z,10.60
2018-10-17T01:14:35.673Z,10.60
2018-10-17T01:17:04.313Z,10.50
2018-10-17T01:19:32.636Z,10.60
2018-10-17T01:22:01.126Z,10.60
2018-10-17T01:24:29.706Z,10.60
2018-10-17T01:26:58.130Z,10.50
2018-10-17T01:29:26.507Z,10.40
2018-10-17T01:31:54.951Z,10.40
2018-10-17T01:34:23.378Z,10.40
2018-10-17T01:36:51.993Z,10.30
2018-10-17T01:39:20.385Z,10.30
2018-10-17T01:41:48.860Z,10.30
2018-10-17T01:44:17.298Z,10.30
2018-10-17T01:46:45.691Z,10.40
2018-10-17T01:49:14.219Z,10.30
2018-10-17T01:51:42.539Z,10.40
2018-10-17T01:54:10.940Z,10.50
2018-10-17T01:56:39.365Z,10.50
2018-10-17T01:59:07.921Z,10.60
2018-10-17T02:01:36.607Z,10.60
2018-10-17T02:04:05.042Z,10.70
2018-10-17T02:06:33.796Z,10.60
2018-10-17T02:09:02.297Z,10.60
2018-10-17T02:11:30.744Z,10.70
2018-10-17T02:13:59.135Z,10.70
2018-10-17T02:16:27.525Z,10.60
2018-10-17T02:18:56.272Z,10.50
2018-10-17T02:21:24.806Z,10.50
2018-10-17T02:23:53.181Z,10.60
2018-10-17T02:26:21.535Z,10.60
2018-10-17T02:28:49.973Z,10.50
2018-10-17T02:31:18.492Z,10.40
2018-10-17T02:33:47.006Z,10.40
2018-10-17T02:36:15.416Z,10.50
2018-10-17T02:38:43.872Z,10.40
2018-10-17T02:41:12.340Z,10.30
2018-10-17T02:43:41.139Z,10.40
2018-10-17T02:46:09.570Z,10.40
2018-10-17T02:48:38.043Z,10.40
2018-10-17T02:51:06.383Z,10.30
2018-10-17T02:53:34.709Z,10.30
2018-10-17T02:56:03.236Z,10.30
2018-10-17T02:58:31.616Z,10.20
2018-10-17T03:01:00.055Z,10.20
2018-10-17T03:03:28.374Z,10.10
2018-10-17T03:05:56.953Z,10.00
2018-10-17T03:08:25.494Z,10.00
2018-10-17T03:10:53.868Z,10.00
2018-10-17T03:13:22.347Z,10.00
2018-10-17T03:15:50.871Z,10.00
2018-10-17T03:18:19.306Z,10.00
2018-10-17T03:20:47.745Z,10.00
2018-10-17T03:23:16.259Z,10.20
2018-10-17T03:25:47.623Z,10.40
2018-10-17T03:28:16.155Z,10.40
2018-10-17T03:30:44.541Z,10.20
2018-10-17T03:33:13.027Z,10.20
2018-10-17T03:35:41.677Z,10.30
2018-10-17T03:38:10.092Z,10.30
2018-10-17T03:40:38.554Z,10.20
2018-10-17T03:43:06.995Z,10.10
2018-10-17T03:45:35.309Z,10.00
2018-10-17T03:48:03.710Z,10.00
2018-10-17T03:50:33.152Z,9.90
2018-10-17T03:53:01.615Z,9.90
2018-10-17T03:55:29.946Z,9.90
2018-10-17T03:57:58.550Z,10.00
2018-10-17T04:00:27.049Z,10.00
2018-10-17T04:02:55.752Z,9.90
2018-10-17T04:05:24.179Z,9.90
2018-10-17T04:07:52.560Z,10.00
2018-10-17T04:10:20.971Z,10.10
2018-10-17T04:12:49.457Z,10.20
2018-10-17T04:15:17.910Z,10.10
2018-10-17T04:17:46.391Z,9.90
2018-10-17T04:20:14.828Z,9.80
2018-10-17T04:22:47.602Z,9.70
2018-10-17T04:25:16.007Z,9.70
2018-10-17T04:27:44.504Z,9.70
2018-10-17T04:30:13.099Z,9.70
2018-10-17T04:32:41.616Z,9.60
2018-10-17T04:35:10.116Z,9.50
2018-10-17T04:37:38.514Z,9.50
2018-10-17T04:40:07.277Z,9.40
2018-10-17T04:42:35.570Z,9.40
2018-10-17T04:45:04.363Z,9.40
2018-10-17T04:47:32.970Z,9.40
2018-10-17T04:50:01.360Z,9.40
2018-10-17T04:52:29.761Z,9.40
2018-10-17T04:54:59.269Z,9.30
2018-10-17T04:57:27.881Z,9.50
2018-10-17T04:59:56.460Z,9.40
2018-10-17T05:02:25.255Z,9.40
2018-10-17T05:04:53.985Z,9.60
2018-10-17T05:07:22.724Z,9.90
2018-10-17T05:09:51.362Z,9.90
2018-10-17T05:12:19.951Z,9.90
2018-10-17T05:14:48.688Z,9.90
2018-10-17T05:17:17.323Z,9.80
2018-10-17T05:19:45.947Z,9.90
2018-10-17T05:22:14.663Z,9.80
2018-10-17T05:24:43.501Z,9.70
2018-10-17T05:27:12.099Z,9.70
2018-10-17T05:29:40.909Z,9.70
2018-10-17T05:32:09.437Z,9.60
2018-10-17T05:34:38.159Z,9.60
2018-10-17T05:37:06.902Z,9.50
2018-10-17T05:39:35.501Z,9.30
2018-10-17T05:42:04.811Z,9.20
2018-10-17T05:44:33.588Z,9.10
2018-10-17T05:47:02.642Z,9.00
2018-10-17T05:49:31.300Z,8.90
2018-10-17T05:52:00.006Z,8.90
2018-10-17T05:54:28.650Z,8.80
2018-10-17T05:56:57.269Z,8.80
2018-10-17T05:59:26.372Z,8.90
2018-10-17T06:01:55.335Z,8.90
2018-10-17T06:04:24.080Z,9.00
2018-10-17T06:06:52.909Z,9.40
2018-10-17T06:09:21.284Z,9.50
2018-10-17T06:11:49.581Z,9.50
2018-10-17T06:14:17.980Z,9.50
2018-10-17T06:16:46.988Z,9.60
2018-10-17T06:19:15.468Z,9.70
2018-10-17T06:21:43.828Z,9.90
2018-10-17T06:24:12.416Z,10.10
2018-10-17T06:26:40.819Z,10.10
2018-10-17T06:29:09.319Z,10.30
2018-10-17T06:31:37.524Z,10.50
2018-10-17T06:34:06.004Z,10.40
2018-10-17T06:36:34.330Z,10.30
2018-10-17T06:39:02.660Z,10.30
2018-10-17T06:41:31.060Z,10.40
2018-10-17T06:43:59.416Z,10.40
2018-10-17T06:46:27.679Z,10.40
2018-10-17T06:48:57.700Z,10.40
2018-10-17T06:51:26.047Z,10.40
2018-10-17T06:53:54.505Z,10.50
2018-10-17T06:56:22.998Z,10.60
2018-10-17T06:58:51.375Z,10.60
2018-10-17T07:01:19.700Z,10.70
2018-10-17T07:03:48.006Z,10.80
2018-10-17T07:06:16.387Z,10.90
2018-10-17T07:08:44.748Z,11.00
2018-10-17T07:11:13.092Z,11.10
2018-10-17T07:13:41.421Z,11.30
2018-10-17T07:16:09.812Z,11.40
2018-10-17T07:18:38.248Z,11.40
2018-10-17T07:21:06.733Z,11.50
2018-10-17T07:23:35.173Z,11.60
2018-10-17T07:26:03.908Z,11.70
2018-10-17T07:28:32.247Z,11.80
2018-10-17T07:31:00.752Z,11.90
2018-10-17T07:33:29.145Z,12.20
2018-10-17T07:35:57.762Z,12.40
2018-10-17T07:38:26.135Z,12.60
2018-10-17T07:40:54.542Z,12.90
2018-10-17T07:43:22.934Z,13.10
2018-10-17T07:45:51.271Z,13.20
2018-10-17T07:48:19.683Z,13.20
2018-10-17T07:50:48.014Z,13.20
2018-10-17T07:53:16.324Z,13.30
2018-10-17T07:55:44.695Z,13.40
2018-10-17T07:58:13.132Z,13.40
2018-10-17T08:00:41.755Z,13.60
2018-10-17T08:03:10.217Z,13.70
2018-10-17T08:05:38.688Z,13.90
2018-10-17T08:08:07.075Z,14.00
2018-10-17T08:10:35.383Z,14.10
2018-10-17T08:13:03.857Z,14.20
2018-10-17T08:15:32.201Z,14.30
2018-10-17T08:18:00.598Z,14.50
2018-10-17T08:20:28.908Z,14.60
2018-10-17T08:22:57.240Z,14.70
2018-10-17T08:25:25.612Z,14.80
2018-10-17T08:27:53.935Z,14.90
2018-10-17T08:30:22.244Z,14.90
2018-10-17T08:32:50.554Z,15.10
2018-10-17T08:35:18.963Z,15.20
2018-10-17T08:37:47.971Z,15.30
2018-10-17T08:40:15.982Z,15.40
2018-10-17T08:42:44.282Z,15.40
2018-10-17T08:45:12.886Z,15.40
2018-10-17T08:47:41.139Z,15.50
2018-10-17T08:50:09.502Z,15.60
2018-10-17T08:52:37.786Z,15.70
2018-10-17T08:55:06.525Z,15.80
2018-10-17T08:57:34.877Z,15.80
2018-10-17T09:00:03.287Z,15.90
2018-10-17T09:02:31.779Z,16.00
2018-10-17T09:05:00.116Z,16.30
2018-10-17T09:07:28.540Z,16.40
2018-10-17T09:09:56.899Z,16.60
2018-10-17T09:12:25.229Z,16.70
2018-10-17T09:14:53.563Z,16.70
2018-10-17T09:17:21.892Z,16.80
2018-10-17T09:19:50.291Z,16.80
2018-10-17T09:22:18.847Z,16.90
2018-10-17T09:24:46.938Z,17.00
2018-10-17T09:27:15.471Z,17.00
2018-10-17T09:29:43.819Z,17.10
2018-10-17T09:32:12.133Z,17.20
2018-10-17T09:34:40.463Z,17.30
2018-10-17T09:37:08.817Z,17.40
2018-10-17T09:39:37.159Z,17.50
2018-10-17T09:42:05.585Z,17.60
2018-10-17T09:44:33.919Z,17.80
2018-10-17T09:47:02.264Z,17.90
2018-10-17T09:49:30.647Z,17.90
2018-10-17T09:51:59.020Z,18.00
2018-10-17T09:54:27.415Z,18.00
2018-10-17T09:56:55.921Z,18.20
2018-10-17T09:59:24.296Z,18.10
2018-10-17T10:01:53.495Z,18.20
2018-10-17T10:04:22.758Z,18.30
2018-10-17T10:06:51.619Z,18.40
2018-10-17T10:09:20.526Z,18.50
2018-10-17T10:11:49.149Z,18.50
2018-10-17T10:14:17.646Z,18.60
2018-10-17T10:16:45.957Z,18.60
2018-10-17T10:19:14.284Z,18.70
2018-10-17T10:21:42.912Z,18.70
2018-10-17T10:24:11.356Z,18.80
2018-10-17T10:26:39.654Z,18.80
2018-10-17T10:29:07.992Z,18.90
2018-10-17T10:31:36.360Z,19.00
2018-10-17T10:34:04.925Z,19.20
2018-10-17T10:36:33.206Z,19.20
2018-10-17T10:39:01.625Z,19.20
2018-10-17T10:41:29.990Z,19.20
2018-10-17T10:43:58.303Z,19.40
2018-10-17T10:46:26.677Z,19.50
2018-10-17T10:48:55.075Z,19.40
2018-10-17T10:51:23.490Z,19.50
2018-10-17T10:53:51.851Z,19.60
2018-10-17T10:56:20.189Z,19.60
2018-10-17T10:58:48.638Z,19.60
2018-10-17T11:01:16.927Z,19.70
2018-10-17T11:03:45.392Z,19.70
2018-10-17T11:06:13.722Z,19.60
2018-10-17T11:08:42.044Z,19.50
2018-10-17T11:11:10.410Z,19.50
2018-10-17T11:13:38.701Z,19.60
2018-10-17T11:16:07.051Z,19.70
2018-10-17T11:18:35.356Z,19.70
2018-10-17T11:21:03.712Z,19.70
2018-10-17T11:23:32.031Z,19.70
2018-10-17T11:26:00.375Z,19.80
2018-10-17T11:28:28.714Z,19.90
2018-10-17T11:30:57.095Z,20.10
2018-10-17T11:33:25.544Z,20.20
2018-10-17T11:35:53.898Z,20.10
2018-10-17T11:38:22.184Z,20.20
2018-10-17T11:40:50.533Z,20.30
2018-10-17T11:43:18.854Z,20.30
2018-10-17T11:45:47.159Z,20.30
2018-10-17T11:48:15.527Z,20.20
2018-10-17T11:50:43.855Z,20.20
2018-10-17T11:53:12.232Z,20.20
2018-10-17T11:55:40.601Z,20.10
2018-10-17T11:58:09.219Z,20.20
2018-10-17T12:00:37.554Z,20.20
2018-10-17T12:03:05.948Z,20.30
2018-10-17T12:05:34.687Z,20.30
2018-10-17T12:08:02.846Z,20.40
2018-10-17T12:10:31.519Z,20.50
2018-10-17T12:12:59.837Z,20.50
2018-10-17T12:15:28.243Z,20.50
2018-10-17T12:17:56.641Z,20.50
2018-10-17T12:20:24.936Z,20.50
2018-10-17T12:22:53.328Z,20.50
2018-10-17T12:25:21.678Z,20.50
2018-10-17T12:27:50.167Z,20.60
2018-10-17T12:30:18.511Z,20.60
2018-10-17T12:32:46.824Z,20.60
2018-10-17T12:35:15.483Z,20.70
2018-10-17T12:37:43.967Z,20.70
2018-10-17T12:40:12.516Z,20.60
2018-10-17T12:42:41.000Z,20.60
2018-10-17T12:45:09.562Z,20.50
2018-10-17T12:47:38.891Z,20.50
2018-10-17T12:50:08.132Z,20.60
2018-10-17T12:52:36.696Z,20.70
2018-10-17T12:55:06.080Z,20.70
2018-10-17T12:57:34.991Z,20.90
2018-10-17T13:00:03.620Z,20.90
2018-10-17T13:02:32.100Z,20.90
2018-10-17T13:05:00.620Z,21.00
2018-10-17T13:07:28.975Z,21.00
2018-10-17T13:09:57.370Z,21.00
2018-10-17T13:12:25.777Z,20.90
2018-10-17T13:14:54.310Z,21.00
2018-10-17T13:17:23.498Z,20.90
2018-10-17T13:19:52.127Z,20.80
2018-10-17T13:22:20.476Z,20.70
2018-10-17T13:24:48.917Z,20.70
2018-10-17T13:27:17.207Z,20.80
2018-10-17T13:29:46.409Z,20.80
2018-10-17T13:32:15.139Z,20.80
2018-10-17T13:34:43.636Z,20.80
2018-10-17T13:37:12.271Z,20.80
2018-10-17T13:39:40.809Z,20.80
2018-10-17T13:42:09.398Z,20.80
2018-10-17T13:44:37.947Z,20.80
2018-10-17T13:47:06.925Z,20.80
2018-10-17T13:49:35.661Z,20.80
2018-10-17T13:52:04.125Z,20.70
2018-10-17T13:54:32.961Z,20.60
2018-10-17T13:57:01.529Z,20.50
2018-10-17T13:59:29.983Z,20.50
2018-10-17T14:01:58.494Z,20.40
2018-10-17T14:04:27.046Z,20.40
2018-10-17T14:06:55.698Z,20.40
2018-10-17T14:09:24.245Z,20.40
2018-10-17T14:11:52.715Z,20.50
2018-10-17T14:14:21.288Z,20.40
2018-10-17T14:16:49.835Z,20.30
2018-10-17T14:19:18.373Z,20.20
2018-10-17T14:21:46.941Z,20.20
2018-10-17T14:24:15.505Z,20.20
2018-10-17T14:26:43.981Z,20.20
2018-10-17T14:29:12.374Z,20.20
2018-10-17T14:31:40.754Z,20.20
2018-10-17T14:34:09.158Z,20.10
2018-10-17T14:36:37.497Z,20.10
2018-10-17T14:39:08.907Z,20.10
2018-10-17T14:41:37.142Z,20.00
2018-10-17T14:44:05.498Z,20.00
2018-10-17T14:46:33.847Z,19.90
2018-10-17T14:49:02.158Z,19.80
2018-10-17T14:51:30.501Z,19.70
2018-10-17T14:53:58.833Z,19.60
2018-10-17T14:56:27.178Z,19.60
2018-10-17T14:58:55.842Z,19.60
2018-10-17T15:01:24.424Z,19.60
2018-10-17T15:03:52.961Z,19.50
2018-10-17T15:06:21.470Z,19.40
2018-10-17T15:08:50.034Z,19.40
2018-10-17T15:11:18.676Z,19.40
2018-10-17T15:13:47.248Z,19.30
2018-10-17T15:16:15.764Z,19.30
2018-10-17T15:18:44.518Z,19.20
2018-10-17T15:21:13.076Z,19.10
2018-10-17T15:23:41.590Z,19.00
2018-10-17T15:26:10.185Z,18.90
2018-10-17T15:28:38.834Z,18.80
2018-10-17T15:31:07.451Z,18.70
2018-10-17T15:33:36.085Z,18.60
2018-10-17T15:36:04.702Z,18.50
2018-10-17T15:38:33.237Z,18.40
2018-10-17T15:41:01.805Z,18.40
2018-10-17T15:43:30.288Z,18.30
2018-10-17T15:45:58.591Z,18.40
2018-10-17T15:48:26.915Z,18.20
2018-10-17T15:50:55.353Z,18.10
2018-10-17T15:53:23.814Z,17.90
2018-10-17T15:55:52.331Z,17.70
2018-10-17T15:58:20.894Z,17.60
2018-10-17T16:00:49.523Z,17.40
2018-10-17T16:03:18.058Z,17.30
2018-10-17T16:05:46.673Z,17.20
2018-10-17T16:08:15.428Z,17.10
2018-10-17T16:10:43.948Z,17.00
2018-10-17T16:13:12.578Z,16.80
2018-10-17T16:15:41.761Z,16.80
2018-10-17T16:18:11.826Z,16.70
2018-10-17T16:20:40.310Z,16.70
2018-10-17T16:23:09.097Z,16.60
2018-10-17T16:25:37.555Z,16.50
2018-10-17T16:28:06.112Z,16.40
2018-10-17T16:30:34.756Z,16.30
2018-10-17T16:33:03.388Z,16.30
2018-10-17T16:35:31.867Z,16.20
2018-10-17T16:38:00.398Z,16.10
2018-10-17T16:40:29.030Z,16.00
2018-10-17T16:42:57.616Z,15.90
2018-10-17T16:45:26.195Z,16.00
2018-10-17T16:47:54.813Z,15.90
2018-10-17T16:50:23.311Z,15.90
2018-10-17T16:52:51.878Z,15.80
2018-10-17T16:55:20.498Z,15.80
2018-10-17T16:57:49.206Z,15.70
2018-10-17T17:00:18.033Z,15.60
2018-10-17T17:02:46.551Z,15.60
2018-10-17T17:05:15.640Z,15.50
2018-10-17T17:07:44.227Z,15.40
2018-10-17T17:10:13.568Z,15.40
2018-10-17T17:12:42.147Z,15.40
2018-10-17T17:15:10.944Z,15.30
2018-10-17T17:17:39.881Z,15.20
2018-10-17T17:20:09.939Z,15.20
2018-10-17T17:22:39.098Z,15.10
2018-10-17T17:25:09.217Z,15.00
2018-10-17T17:27:37.767Z,15.00
2018-10-17T17:30:10.980Z,14.90
2018-10-17T17:32:39.492Z,14.90
2018-10-17T17:35:08.191Z,14.90
2018-10-17T17:37:36.897Z,14.80
2018-10-17T17:40:09.107Z,14.80
2018-10-17T17:42:38.123Z,14.80
2018-10-17T17:45:07.163Z,14.70
2018-10-17T17:47:35.797Z,14.60
2018-10-17T17:50:04.359Z,14.70
2018-10-17T17:52:32.912Z,14.70
2018-10-17T17:55:01.537Z,14.70
2018-10-17T17:57:30.096Z,14.70
2018-10-17T17:59:58.730Z,14.70
2018-10-17T18:02:27.295Z,14.60
2018-10-17T18:04:55.758Z,14.60
2018-10-17T18:07:24.168Z,14.60
2018-10-17T18:09:52.551Z,14.50
2018-10-17T18:12:20.887Z,14.50
2018-10-17T18:14:49.313Z,14.40
2018-10-17T18:17:17.725Z,14.40
2018-10-17T18:19:46.068Z,14.40
2018-10-17T18:22:14.523Z,14.50
2018-10-17T18:24:42.831Z,14.50
2018-10-17T18:27:11.320Z,14.50
2018-10-17T18:29:39.717Z,14.40
2018-10-17T18:32:08.093Z,14.30
2018-10-17T18:34:36.552Z,14.20
2018-10-17T18:37:05.102Z,14.20
2018-10-17T18:39:33.385Z,14.10
2018-10-17T18:42:01.774Z,14.10
2018-10-17T18:44:30.183Z,14.10
2018-10-17T18:46:58.627Z,14.10
2018-10-17T18:49:27.194Z,14.10
2018-10-17T18:51:55.795Z,14.20
2018-10-17T18:54:24.234Z,14.50
2018-10-17T18:56:52.651Z,14.40
2018-10-17T18:59:21.316Z,14.20
2018-10-17T19:01:49.975Z,14.10
2018-10-17T19:04:19.521Z,14.20
2018-10-17T19:06:47.945Z,14.10
2018-10-17T19:09:16.407Z,14.00
2018-10-17T19:11:44.854Z,14.00
2018-10-17T19:14:13.210Z,13.90
2018-10-17T19:16:41.635Z,13.80
2018-10-17T19:19:10.009Z,13.80
2018-10-17T19:21:38.443Z,13.70
2018-10-17T19:24:06.850Z,13.70
2018-10-17T19:26:35.259Z,13.80
2018-10-17T19:29:03.639Z,14.10
2018-10-17T19:31:33.052Z,14.30
2018-10-17T19:34:01.392Z,14.40
2018-10-17T19:36:30.057Z,14.30
2018-10-17T19:38:58.789Z,14.10
2018-10-17T19:41:27.216Z,13.80
2018-10-17T19:43:56.059Z,13.60
2018-10-17T19:46:24.415Z,13.50
2018-10-17T19:48:52.855Z,13.50
2018-10-17T19:51:21.558Z,13.40
2018-10-17T19:53:49.879Z,13.20
2018-10-17T19:56:18.198Z,13.40
2018-10-17T19:58:46.801Z,13.70
2018-10-17T20:01:15.192Z,13.90
2018-10-17T20:03:43.566Z,13.80
2018-10-17T20:06:11.938Z,13.60
2018-10-17T20:08:40.284Z,13.40
2018-10-17T20:11:08.597Z,13.40
2018-10-17T20:13:37.176Z,13.30
2018-10-17T20:16:06.070Z,13.40
2018-10-17T20:18:34.467Z,13.40
2018-10-17T20:21:03.061Z,13.40
2018-10-17T20:23:31.458Z,13.30
2018-10-17T20:25:59.826Z,13.20
2018-10-17T20:28:28.654Z,13.10
2018-10-17T20:30:57.102Z,13.00
2018-10-17T20:33:25.570Z,12.90
2018-10-17T20:35:53.952Z,12.80
2018-10-17T20:38:22.385Z,12.70
2018-10-17T20:40:50.690Z,12.60
2018-10-17T20:43:19.140Z,12.50
2018-10-17T20:45:47.451Z,12.50
2018-10-17T20:48:15.772Z,12.70
2018-10-17T20:50:44.382Z,12.70
2018-10-17T20:53:12.888Z,12.70
2018-10-17T20:55:41.239Z,12.70
2018-10-17T20:58:09.787Z,12.50
2018-10-17T21:00:38.062Z,12.40
2018-10-17T21:03:06.474Z,12.30
2018-10-17T21:05:34.922Z,12.20
2018-10-17T21:08:03.320Z,12.10
2018-10-17T21:10:31.645Z,12.20
2018-10-17T21:13:00.095Z,12.20
2018-10-17T21:15:28.423Z,12.20
2018-10-17T21:17:56.954Z,12.40
2018-10-17T21:20:25.387Z,12.50
2018-10-17T21:22:53.715Z,12.70
2018-10-17T21:25:22.091Z,12.60
2018-10-17T21:27:50.542Z,12.70
2018-10-17T21:30:18.926Z,12.70
2018-10-17T21:32:47.244Z,12.70
2018-10-17T21:35:16.569Z,12.70
2018-10-17T21:37:45.043Z,12.50
2018-10-17T21:40:13.349Z,12.50
2018-10-17T21:42:41.722Z,12.60
2018-10-17T21:45:10.106Z,12.70
2018-10-17T21:47:38.443Z,12.50
2018-10-17T21:50:06.883Z,12.40
2018-10-17T21:52:35.198Z,12.20
2018-10-17T21:55:03.537Z,12.00
2018-10-17T21:57:31.897Z,11.90
2018-10-17T22:00:00.228Z,11.90
2018-10-17T22:02:28.586Z,11.90
2018-10-17T22:04:57.144Z,12.00
2018-10-17T22:07:25.535Z,12.00
2018-10-17T22:09:53.985Z,12.00
2018-10-17T22:12:22.403Z,11.90
2018-10-17T22:14:50.863Z,11.80
2018-10-17T22:17:24.801Z,12.00
2018-10-17T22:19:53.180Z,12.00
2018-10-17T22:22:21.781Z,11.80
2018-10-17T22:24:50.414Z,11.90
2018-10-17T22:27:18.774Z,11.80
2018-10-17T22:29:47.240Z,11.80
2018-10-17T22:32:15.784Z,11.70
2018-10-17T22:34:44.046Z,11.60
2018-10-17T22:37:12.629Z,11.70
2018-10-17T22:39:41.079Z,11.80
2018-10-17T22:42:09.401Z,11.80
2018-10-17T22:44:37.759Z,11.70
2018-10-17T22:47:06.382Z,11.50
2018-10-17T22:49:34.723Z,11.40
2018-10-17T22:52:03.045Z,11.60
2018-10-17T22:54:31.630Z,11.80
2018-10-17T22:56:59.943Z,11.70
2018-10-17T22:59:28.662Z,11.60
2018-10-17T23:01:57.192Z,11.40
2018-10-17T23:04:25.605Z,11.30
2018-10-17T23:06:54.172Z,11.20
2018-10-17T23:09:22.623Z,11.00
2018-10-17T23:11:50.973Z,11.00
2018-10-17T23:14:19.280Z,10.90
2018-10-17T23:16:47.797Z,11.00
2018-10-17T23:19:16.087Z,11.10
2018-10-17T23:21:44.434Z,11.30
2018-10-17T23:24:13.248Z,11.40
2018-10-17T23:26:41.556Z,11.40
2018-10-17T23:29:09.975Z,11.30
2018-10-17T23:31:38.294Z,11.20
2018-10-17T23:34:06.856Z,11.00
2018-10-17T23:36:35.169Z,11.00
2018-10-17T23:39:03.618Z,11.00
2018-10-17T23:41:31.941Z,11.10
2018-10-17T23:44:00.272Z,11.30
2018-10-17T23:46:28.728Z,11.40
2018-10-17T23:48:57.035Z,11.40
2018-10-17T23:51:25.514Z,11.40
2018-10-17T23:53:54.361Z,11.20
2018-10-17T23:56:22.701Z,11.00
2018-10-17T23:58:51.077Z,11.00
